Time,TemperatureF,DewpointF,PressureIn,WindDirection,WindDirectionDegrees,WindSpeedMPH,WindSpeedGustMPH,Humidity,HourlyPrecipIn,Conditions,Clouds,dailyrainin,SoftwareType,DateUTC
2013-01-07 00:00:00,10.2,8.4,29.29,East,94,2.0,0.0,92,0.00,CLR,,0.00,WeatherDisplay:10.37,2013-01-07 09:00:00,
2013-01-07 00:10:00,10.6,7.5,29.29,NNE,24,1.0,0.0,87,0.00,CLR,,0.00,WeatherDisplay:10.37,2013-01-07 09:10:00,
2013-01-07 00:15:00,10.9,7.8,29.29,NNE,31,0.0,0.0,87,0.00,CLR,,0.00,WeatherDisplay:10.37,2013-01-07 09:15:00,
2013-01-07 00:25:00,10.8,7.7,29.28,WNW,282,1.0,0.0,87,0.00,CLR,,0.00,WeatherDisplay:10.37,2013-01-07 09:25:00,
2013-01-07 00:30:00,10.9,8.0,29.27,West,274,0.0,0.0,88,0.00,CLR,,0.00,WeatherDisplay:10.37,2013-01-07 09:30:00,
2013-01-07 00:40:00,11.4,7.5,29.27,SW,229,0.0,0.0,84,0.00,CLR,,0.00,WeatherDisplay:10.37,2013-01-07 09:40:00,
2013-01-07 00:45:00,11.1,8.0,29.27,SW,225,1.0,0.0,87,0.00,CLR,,0.00,WeatherDisplay:10.37,2013-01-07 09:45:00,
2013-01-07 00:55:00,10.9,7.8,29.26,North,5,1.0,0.0,87,0.00,CLR,,0.00,WeatherDisplay:10.37,2013-01-07 09:55:00,
2013-01-07 01:00:00,10.9,7.8,29.26,NNE,19,0.0,0.0,87,0.00,CLR,,0.00,WeatherDisplay:10.37,2013-01-07 10:00:00,
2013-01-07 01:15:00,10.8,7.4,29.27,East,98,0.0,2.0,86,0.00,CLR,,0.00,WeatherDisplay:10.37,2013-01-07 10:15:00,
2013-01-07 01:25:00,9.7,6.3,29.27,NE,45,0.0,0.0,86,0.00,CLR,,0.00,WeatherDisplay:10.37,2013-01-07 10:25:00,
2013-01-07 01:30:00,9.7,7.6,29.27,NE,45,0.0,0.0,91,0.00,CLR,,0.00,WeatherDisplay:10.37,2013-01-07 10:30:00,
2013-01-07 01:39:00,10.8,8.4,29.27,NE,45,0.0,0.0,90,0.00,CLR,,0.00,WeatherDisplay:10.37,2013-01-07 10:39:00,
2013-01-07 01:45:00,11.1,8.3,29.27,NE,45,0.0,0.0,88,0.00,CLR,,0.00,WeatherDisplay:10.37,2013-01-07 10:45:00,
2013-01-07 01:55:00,12.0,8.6,29.27,NE,45,0.0,0.0,86,0.00,CLR,,0.00,WeatherDisplay:10.37,2013-01-07 10:55:00,
2013-01-07 02:00:00,12.2,9.1,29.27,NE,45,0.0,0.0,87,0.00,CLR,,0.00,WeatherDisplay:10.37,2013-01-07 11:00:00,
2013-01-07 02:05:00,12.4,9.0,29.27,NE,45,0.0,0.0,86,0.00,CLR,,0.00,WeatherDisplay:10.37,2013-01-07 11:05:00,
2013-01-07 02:10:00,12.6,9.7,29.27,NE,45,0.0,0.0,88,0.00,CLR,,0.00,WeatherDisplay:10.37,2013-01-07 11:10:00,
2013-01-07 02:15:00,12.9,10.0,29.27,NE,45,0.0,0.0,88,0.00,CLR,,0.00,WeatherDisplay:10.37,2013-01-07 11:15:00,
2013-01-07 02:25:00,13.5,10.8,29.27,NE,45,0.0,0.0,89,0.00,CLR,,0.00,WeatherDisplay:10.37,2013-01-07 11:25:00,
2013-01-07 02:30:00,13.6,10.7,29.27,NE,45,0.0,0.0,88,0.00,CLR,,0.00,WeatherDisplay:10.37,2013-01-07 11:30:00,
2013-01-07 02:39:00,14.4,11.2,29.27,NE,45,0.0,0.0,87,0.00,CLR,,0.00,WeatherDisplay:10.37,2013-01-07 11:39:00,
2013-01-07 02:45:00,14.7,11.6,29.27,NE,45,0.0,0.0,87,0.00,CLR,,0.00,WeatherDisplay:10.37,2013-01-07 11:45:00,
2013-01-07 02:50:00,15.1,11.9,29.27,NE,45,0.0,0.0,87,0.00,CLR,,0.00,WeatherDisplay:10.37,2013-01-07 11:50:00,
2013-01-07 03:00:00,15.4,12.0,29.27,NE,45,0.0,0.0,86,0.00,CLR,,0.00,WeatherDisplay:10.37,2013-01-07 12:00:00,
2013-01-07 03:10:00,15.1,11.9,29.27,NE,45,0.0,0.0,87,0.00,CLR,,0.00,WeatherDisplay:10.37,2013-01-07 12:10:00,
2013-01-07 03:15:00,15.3,12.1,29.27,NE,45,0.0,0.0,87,0.00,CLR,,0.00,WeatherDisplay:10.37,2013-01-07 12:15:00,
2013-01-07 03:25:00,15.3,12.3,29.27,NE,45,0.0,0.0,88,0.00,CLR,,0.00,WeatherDisplay:10.37,2013-01-07 12:25:00,
2013-01-07 03:30:00,15.3,11.8,29.27,NE,45,0.0,0.0,86,0.00,CLR,,0.00,WeatherDisplay:10.37,2013-01-07 12:30:00,
2013-01-07 03:40:00,15.1,11.6,29.27,NE,45,0.0,0.0,86,0.00,CLR,,0.00,WeatherDisplay:10.37,2013-01-07 12:40:00,
2013-01-07 03:45:00,15.1,11.6,29.27,NE,45,0.0,0.0,86,0.00,CLR,,0.00,WeatherDisplay:10.37,2013-01-07 12:45:00,
2013-01-07 03:55:00,15.3,11.8,29.27,NE,45,0.0,0.0,86,0.00,CLR,,0.00,WeatherDisplay:10.37,2013-01-07 12:55:00,
2013-01-07 04:00:00,15.1,11.4,29.27,NE,45,0.0,0.0,85,0.00,CLR,,0.00,WeatherDisplay:10.37,2013-01-07 13:00:00,
2013-01-07 04:10:00,14.9,11.7,29.27,NE,45,0.0,0.0,87,0.00,CLR,,0.00,WeatherDisplay:10.37,2013-01-07 13:10:00,
2013-01-07 04:15:00,14.9,11.5,29.27,NE,45,0.0,0.0,86,0.00,CLR,,0.00,WeatherDisplay:10.37,2013-01-07 13:15:00,
2013-01-07 04:20:00,14.9,11.7,29.27,NE,45,0.0,0.0,87,0.00,CLR,,0.00,WeatherDisplay:10.37,2013-01-07 13:20:00,
2013-01-07 04:25:00,14.9,11.2,29.27,NE,45,0.0,0.0,85,0.00,CLR,,0.00,WeatherDisplay:10.37,2013-01-07 13:25:00,
2013-01-07 04:30:00,15.1,11.4,29.27,NE,45,0.0,0.0,85,0.00,CLR,,0.00,WeatherDisplay:10.37,2013-01-07 13:30:00,
2013-01-07 04:39:00,15.3,11.3,29.27,NE,45,0.0,0.0,84,0.00,CLR,,0.00,WeatherDisplay:10.37,2013-01-07 13:39:00,
2013-01-07 04:45:00,15.3,11.3,29.27,NE,45,0.0,0.0,84,0.00,CLR,,0.00,WeatherDisplay:10.37,2013-01-07 13:45:00,
2013-01-07 04:50:00,15.4,11.7,29.27,NE,45,0.0,0.0,85,0.00,CLR,,0.00,WeatherDisplay:10.37,2013-01-07 13:50:00,
2013-01-07 04:55:00,15.6,12.2,29.27,NE,45,0.0,0.0,86,0.00,CLR,,0.00,WeatherDisplay:10.37,2013-01-07 13:55:00,
2013-01-07 05:00:00,15.6,12.4,29.27,NE,45,0.0,0.0,87,0.00,CLR,,0.00,WeatherDisplay:10.37,2013-01-07 14:00:00,
2013-01-07 05:10:00,15.6,11.6,29.27,NE,45,0.0,0.0,84,0.00,CLR,,0.00,WeatherDisplay:10.37,2013-01-07 14:10:00,
2013-01-07 05:15:00,15.6,11.9,29.27,NE,45,0.0,0.0,85,0.00,CLR,,0.00,WeatherDisplay:10.37,2013-01-07 14:15:00,
2013-01-07 05:25:00,15.3,12.6,29.27,NE,45,0.0,0.0,89,0.00,CLR,,0.00,WeatherDisplay:10.37,2013-01-07 14:25:00,
2013-01-07 05:30:00,15.1,11.9,29.27,NE,45,0.0,0.0,87,0.00,CLR,,0.00,WeatherDisplay:10.37,2013-01-07 14:30:00,
2013-01-07 05:40:00,14.6,10.1,29.27,NE,45,0.0,0.0,82,0.00,CLR,,0.00,WeatherDisplay:10.37,2013-01-07 14:40:00,
2013-01-07 05:45:00,14.5,10.9,29.27,NE,45,0.0,0.0,85,0.00,CLR,,0.00,WeatherDisplay:10.37,2013-01-07 14:45:00,
2013-01-07 05:50:00,14.4,10.4,29.27,NE,45,0.0,0.0,84,0.00,CLR,,0.00,WeatherDisplay:10.37,2013-01-07 14:50:00,
2013-01-07 05:54:00,14.2,10.5,29.27,NE,45,0.0,0.0,85,0.00,CLR,,0.00,WeatherDisplay:10.37,2013-01-07 14:54:00,
2013-01-07 06:00:00,14.2,10.2,29.27,NE,45,0.0,0.0,84,0.00,CLR,,0.00,WeatherDisplay:10.37,2013-01-07 15:00:00,
2013-01-07 06:10:00,13.6,9.4,29.27,NE,45,0.0,0.0,83,0.00,CLR,,0.00,WeatherDisplay:10.37,2013-01-07 15:10:00,
2013-01-07 06:15:00,13.5,9.5,29.27,NE,45,0.0,0.0,84,0.00,CLR,,0.00,WeatherDisplay:10.37,2013-01-07 15:15:00,
2013-01-07 06:25:00,13.5,9.5,29.27,NE,45,0.0,0.0,84,0.00,CLR,,0.00,WeatherDisplay:10.37,2013-01-07 15:25:00,
2013-01-07 06:30:00,13.5,9.3,29.27,NE,45,0.0,0.0,83,0.00,CLR,,0.00,WeatherDisplay:10.37,2013-01-07 15:30:00,
2013-01-07 06:40:00,12.9,9.0,29.27,NE,45,0.0,0.0,84,0.00,CLR,,0.00,WeatherDisplay:10.37,2013-01-07 15:40:00,
2013-01-07 06:45:00,12.9,8.7,29.27,NE,45,0.0,0.0,83,0.00,CLR,,0.00,WeatherDisplay:10.37,2013-01-07 15:45:00,
2013-01-07 06:50:00,12.9,8.7,29.27,NE,45,0.0,0.0,83,0.00,CLR,,0.00,WeatherDisplay:10.37,2013-01-07 15:50:00,
2013-01-07 06:55:00,12.9,9.0,29.27,NE,45,0.0,0.0,84,0.00,CLR,,0.00,WeatherDisplay:10.37,2013-01-07 15:55:00,
2013-01-07 07:00:00,12.7,8.8,29.27,NE,45,1.0,0.0,84,0.00,CLR,,0.00,WeatherDisplay:10.37,2013-01-07 16:00:00,
2013-01-07 07:09:00,12.4,8.5,29.27,NE,45,0.0,0.0,84,0.00,CLR,,0.00,WeatherDisplay:10.37,2013-01-07 16:09:00,
2013-01-07 07:15:00,12.0,8.1,29.27,NE,45,0.0,0.0,84,0.00,CLR,,0.00,WeatherDisplay:10.37,2013-01-07 16:15:00,
2013-01-07 07:20:00,12.2,8.3,29.27,NE,45,0.0,0.0,84,0.00,CLR,,0.00,WeatherDisplay:10.37,2013-01-07 16:20:00,
2013-01-07 07:25:00,12.4,8.7,29.27,NE,45,0.0,0.0,85,0.00,CLR,,0.00,WeatherDisplay:10.37,2013-01-07 16:25:00,
2013-01-07 07:30:00,12.4,8.5,29.27,NE,45,0.0,0.0,84,0.00,CLR,,0.00,WeatherDisplay:10.37,2013-01-07 16:30:00,
2013-01-07 07:40:00,12.4,8.2,29.27,NE,45,0.0,0.0,83,0.00,CLR,,0.00,WeatherDisplay:10.37,2013-01-07 16:40:00,
2013-01-07 07:45:00,12.4,9.5,29.27,NE,45,0.0,0.0,88,0.00,CLR,,0.00,WeatherDisplay:10.37,2013-01-07 16:45:00,
2013-01-07 07:50:00,12.4,8.2,29.27,NE,45,0.0,0.0,83,0.00,CLR,,0.00,WeatherDisplay:10.37,2013-01-07 16:50:00,
2013-01-07 07:55:00,12.2,7.8,29.27,NE,45,0.0,0.0,82,0.00,CLR,,0.00,WeatherDisplay:10.37,2013-01-07 16:55:00,
2013-01-07 08:00:00,12.4,8.2,29.27,NE,45,0.0,0.0,83,0.00,CLR,,0.00,WeatherDisplay:10.37,2013-01-07 17:00:00,
2013-01-07 08:10:00,12.4,8.5,29.27,NE,45,0.0,0.0,84,0.00,CLR,,0.00,WeatherDisplay:10.37,2013-01-07 17:10:00,
2013-01-07 08:15:00,12.0,7.8,29.27,NE,45,0.0,0.0,83,0.00,CLR,,0.00,WeatherDisplay:10.37,2013-01-07 17:15:00,
2013-01-07 08:24:00,12.0,7.8,29.27,NE,45,0.0,0.0,83,0.00,CLR,,0.00,WeatherDisplay:10.37,2013-01-07 17:24:00,
2013-01-07 08:30:00,12.0,8.4,29.27,NE,45,0.0,0.0,85,0.00,CLR,,0.00,WeatherDisplay:10.37,2013-01-07 17:30:00,
2013-01-07 08:35:00,12.0,8.4,29.27,NE,45,0.0,0.0,85,0.00,CLR,,0.00,WeatherDisplay:10.37,2013-01-07 17:35:00,
2013-01-07 08:40:00,12.3,8.1,29.27,NE,45,0.0,0.0,83,0.00,CLR,,0.00,WeatherDisplay:10.37,2013-01-07 17:40:00,
2013-01-07 08:45:00,12.4,8.2,29.27,NE,45,1.0,0.0,83,0.00,CLR,,0.00,WeatherDisplay:10.37,2013-01-07 17:45:00,
2013-01-07 08:55:00,12.0,9.1,29.27,NE,45,0.0,0.0,88,0.00,CLR,,0.00,WeatherDisplay:10.37,2013-01-07 17:55:00,
2013-01-07 09:00:00,11.9,8.3,29.27,NE,45,0.0,0.0,85,0.00,CLR,,0.00,WeatherDisplay:10.37,2013-01-07 18:00:00,
2013-01-07 09:09:00,11.4,7.5,29.27,NE,45,0.0,0.0,84,0.00,CLR,,0.00,WeatherDisplay:10.37,2013-01-07 18:09:00,
2013-01-07 09:15:00,11.5,7.3,29.27,NE,45,0.0,0.0,83,0.00,CLR,,0.00,WeatherDisplay:10.37,2013-01-07 18:15:00,
2013-01-07 09:25:00,11.6,7.7,29.27,NE,45,0.0,0.0,84,0.00,CLR,,0.00,WeatherDisplay:10.37,2013-01-07 18:25:00,
2013-01-07 09:30:00,11.1,6.4,29.27,NE,45,0.0,0.0,81,0.00,CLR,,0.00,WeatherDisplay:10.37,2013-01-07 18:30:00,
2013-01-07 09:35:00,11.1,7.0,29.27,NE,45,0.0,0.0,83,0.00,CLR,,0.00,WeatherDisplay:10.37,2013-01-07 18:35:00,
2013-01-07 09:40:00,11.5,6.8,29.27,NE,45,0.0,0.0,81,0.00,CLR,,0.00,WeatherDisplay:10.37,2013-01-07 18:40:00,
2013-01-07 09:45:00,11.5,7.6,29.27,NE,45,0.0,0.0,84,0.00,CLR,,0.00,WeatherDisplay:10.37,2013-01-07 18:45:00,
2013-01-07 09:55:00,11.7,7.5,29.27,NE,45,0.0,0.0,83,0.00,CLR,,0.00,WeatherDisplay:10.37,2013-01-07 18:55:00,
2013-01-07 10:00:00,11.7,7.8,29.27,NE,45,0.0,0.0,84,0.00,CLR,,0.00,WeatherDisplay:10.37,2013-01-07 19:00:00,
2013-01-07 10:10:00,11.3,7.4,29.27,NE,45,2.0,0.0,84,0.00,CLR,,0.00,WeatherDisplay:10.37,2013-01-07 19:10:00,
2013-01-07 10:15:00,11.8,7.9,29.27,NE,45,2.0,0.0,84,0.00,CLR,,0.00,WeatherDisplay:10.37,2013-01-07 19:15:00,
2013-01-07 10:24:00,11.2,8.6,29.27,NE,45,1.0,0.0,89,0.00,CLR,,0.00,WeatherDisplay:10.37,2013-01-07 19:24:00,
2013-01-07 10:30:00,10.8,6.9,29.27,NE,45,0.0,0.0,84,0.00,CLR,,0.00,WeatherDisplay:10.37,2013-01-07 19:30:00,
2013-01-07 10:40:00,10.6,6.4,29.27,NE,45,0.0,0.0,83,0.00,CLR,,0.00,WeatherDisplay:10.37,2013-01-07 19:40:00,
2013-01-07 10:45:00,10.6,6.7,29.27,NE,45,0.0,0.0,84,0.00,CLR,,0.00,WeatherDisplay:10.37,2013-01-07 19:45:00,
2013-01-07 10:54:00,10.9,6.8,29.27,NE,45,0.0,0.0,83,0.00,CLR,,0.00,WeatherDisplay:10.37,2013-01-07 19:54:00,
2013-01-07 11:00:00,10.8,7.1,29.27,NE,45,0.0,0.0,85,0.00,CLR,,0.00,WeatherDisplay:10.37,2013-01-07 20:00:00,
2013-01-07 11:10:00,10.8,6.6,29.27,NE,45,0.0,0.0,83,0.00,CLR,,0.00,WeatherDisplay:10.37,2013-01-07 20:10:00,
2013-01-07 11:15:00,10.8,6.9,29.27,NE,45,0.0,0.0,84,0.00,CLR,,0.00,WeatherDisplay:10.37,2013-01-07 20:15:00,
2013-01-07 11:20:00,10.8,6.6,29.27,NE,45,0.0,0.0,83,0.00,CLR,,0.00,WeatherDisplay:10.37,2013-01-07 20:20:00,
2013-01-07 11:25:00,10.6,6.7,29.27,NE,45,0.0,0.0,84,0.00,CLR,,0.00,WeatherDisplay:10.37,2013-01-07 20:25:00,
2013-01-07 11:30:00,10.8,6.3,29.27,NE,45,0.0,0.0,82,0.00,CLR,,0.00,WeatherDisplay:10.37,2013-01-07 20:30:00,
2013-01-07 11:39:00,10.9,7.1,29.27,NE,45,0.0,0.0,84,0.00,CLR,,0.00,WeatherDisplay:10.37,2013-01-07 20:39:00,
2013-01-07 11:45:00,11.1,7.0,29.27,NE,45,0.0,0.0,83,0.00,CLR,,0.00,WeatherDisplay:10.37,2013-01-07 20:45:00,
2013-01-07 11:50:00,10.9,6.8,29.27,NE,45,0.0,0.0,83,0.00,CLR,,0.00,WeatherDisplay:10.37,2013-01-07 20:50:00,
2013-01-07 11:55:00,10.8,6.3,29.27,NE,45,0.0,0.0,82,0.00,CLR,,0.00,WeatherDisplay:10.37,2013-01-07 20:55:00,
2013-01-07 12:00:00,10.8,6.3,29.27,NE,45,0.0,0.0,82,0.00,CLR,,0.00,WeatherDisplay:10.37,2013-01-07 21:00:00,
2013-01-07 12:09:00,10.6,5.9,29.27,NE,45,0.0,0.0,81,0.00,CLR,,0.00,WeatherDisplay:10.37,2013-01-07 21:09:00,
2013-01-07 12:15:00,10.8,6.3,29.27,NE,45,0.0,0.0,82,0.00,CLR,,0.00,WeatherDisplay:10.37,2013-01-07 21:15:00,
2013-01-07 12:20:00,11.1,9.0,29.27,NE,45,0.0,0.0,91,0.00,CLR,,0.00,WeatherDisplay:10.37,2013-01-07 21:20:00,
2013-01-07 12:24:00,11.3,6.9,29.27,NE,45,0.0,0.0,82,0.00,CLR,,0.00,WeatherDisplay:10.37,2013-01-07 21:24:00,
2013-01-07 12:30:00,11.7,7.2,29.27,NE,45,0.0,0.0,82,0.00,CLR,,0.00,WeatherDisplay:10.37,2013-01-07 21:30:00,
2013-01-07 12:35:00,11.8,7.9,29.27,NE,45,0.0,0.0,84,0.00,CLR,,0.00,WeatherDisplay:10.37,2013-01-07 21:35:00,
2013-01-07 12:40:00,11.8,7.4,29.27,NE,45,0.0,0.0,82,0.00,CLR,,0.00,WeatherDisplay:10.37,2013-01-07 21:40:00,
2013-01-07 12:50:00,11.7,7.2,29.27,NE,45,0.0,0.0,82,0.00,CLR,,0.00,WeatherDisplay:10.37,2013-01-07 21:50:00,
2013-01-07 12:55:00,11.5,7.1,29.27,NE,45,0.0,0.0,82,0.00,CLR,,0.00,WeatherDisplay:10.37,2013-01-07 21:55:00,
2013-01-07 13:00:00,11.1,6.7,29.27,NE,45,0.0,0.0,82,0.00,CLR,,0.00,WeatherDisplay:10.37,2013-01-07 22:00:00,
2013-01-07 13:05:00,10.8,6.4,29.27,NE,45,0.0,0.0,82,0.00,CLR,,0.00,WeatherDisplay:10.37,2013-01-07 22:05:00,
2013-01-07 13:10:00,10.7,5.5,29.27,NE,45,0.0,0.0,79,0.00,CLR,,0.00,WeatherDisplay:10.37,2013-01-07 22:10:00,
2013-01-07 13:15:00,10.6,5.9,29.27,NE,45,0.0,0.0,81,0.00,CLR,,0.00,WeatherDisplay:10.37,2013-01-07 22:15:00,
2013-01-07 13:25:00,10.2,5.0,29.27,NE,45,0.0,0.0,79,0.00,CLR,,0.00,WeatherDisplay:10.37,2013-01-07 22:25:00,
2013-01-07 13:30:00,10.4,5.4,29.27,NE,45,0.0,0.0,80,0.00,CLR,,0.00,WeatherDisplay:10.37,2013-01-07 22:30:00,
2013-01-07 13:40:00,10.5,5.6,29.27,NE,45,0.0,0.0,80,0.00,CLR,,0.00,WeatherDisplay:10.37,2013-01-07 22:40:00,
2013-01-07 13:45:00,10.8,6.3,29.27,NE,45,0.0,0.0,82,0.00,CLR,,0.00,WeatherDisplay:10.37,2013-01-07 22:45:00,
2013-01-07 13:50:00,11.1,6.2,29.27,NE,45,0.0,0.0,80,0.00,CLR,,0.00,WeatherDisplay:10.37,2013-01-07 22:50:00,
2013-01-07 13:55:00,11.1,6.4,29.27,NE,45,0.0,0.0,81,0.00,CLR,,0.00,WeatherDisplay:10.37,2013-01-07 22:55:00,
2013-01-07 14:00:00,10.8,6.3,29.27,NE,45,0.0,0.0,82,0.00,CLR,,0.00,WeatherDisplay:10.37,2013-01-07 23:00:00,
2013-01-07 14:10:00,11.1,6.4,29.27,NE,45,0.0,0.0,81,0.00,CLR,,0.00,WeatherDisplay:10.37,2013-01-07 23:10:00,
2013-01-07 14:15:00,11.1,6.4,29.27,NE,45,0.0,0.0,81,0.00,CLR,,0.00,WeatherDisplay:10.37,2013-01-07 23:15:00,
2013-01-07 14:24:00,10.6,5.6,29.27,NE,45,0.0,0.0,80,0.00,CLR,,0.00,WeatherDisplay:10.37,2013-01-07 23:24:00,
2013-01-07 14:30:00,10.2,5.8,29.27,NE,45,0.0,0.0,82,0.00,CLR,,0.00,WeatherDisplay:10.37,2013-01-07 23:30:00,
2013-01-07 14:40:00,9.5,5.4,29.27,NE,45,0.0,0.0,83,0.00,CLR,,0.00,WeatherDisplay:10.37,2013-01-07 23:40:00,
2013-01-07 14:45:00,9.0,4.9,29.27,NE,45,0.0,0.0,83,0.00,CLR,,0.00,WeatherDisplay:10.37,2013-01-07 23:45:00,
2013-01-07 14:55:00,8.4,4.3,29.27,NE,45,0.0,0.0,83,0.00,CLR,,0.00,WeatherDisplay:10.37,2013-01-07 23:55:00,
2013-01-07 15:00:00,8.1,3.2,29.27,NE,45,0.0,0.0,80,0.00,CLR,,0.00,WeatherDisplay:10.37,2013-01-08 00:00:00,
2013-01-07 15:10:00,7.9,4.1,29.27,NE,45,0.0,0.0,84,0.00,CLR,,0.00,WeatherDisplay:10.37,2013-01-08 00:10:00,
2013-01-07 15:15:00,7.6,2.7,29.27,NE,45,0.0,0.0,80,0.00,CLR,,0.00,WeatherDisplay:10.37,2013-01-08 00:15:00,
2013-01-07 15:20:00,7.5,3.4,29.27,NE,45,1.0,0.0,83,0.00,CLR,,0.00,WeatherDisplay:10.37,2013-01-08 00:20:00,
2013-01-07 15:25:00,7.5,3.7,29.27,NE,45,0.0,0.0,84,0.00,CLR,,0.00,WeatherDisplay:10.37,2013-01-08 00:25:00,
2013-01-07 15:30:00,7.5,4.0,29.27,NE,45,0.0,0.0,85,0.00,CLR,,0.00,WeatherDisplay:10.37,2013-01-08 00:30:00,
2013-01-07 15:40:00,7.0,3.4,29.27,NE,45,0.0,0.0,85,0.00,CLR,,0.00,WeatherDisplay:10.37,2013-01-08 00:40:00,
2013-01-07 15:45:00,6.6,3.0,29.27,NE,45,0.0,0.0,85,0.00,CLR,,0.00,WeatherDisplay:10.37,2013-01-08 00:45:00,
2013-01-07 15:55:00,5.7,1.7,29.27,NE,45,0.0,0.0,83,0.00,CLR,,0.00,WeatherDisplay:10.37,2013-01-08 00:55:00,
2013-01-07 16:00:00,5.5,1.2,29.27,NE,45,0.0,0.0,82,0.00,CLR,,0.00,WeatherDisplay:10.37,2013-01-08 01:00:00,
2013-01-07 16:10:00,6.4,2.9,29.27,NE,45,1.0,0.0,85,0.00,CLR,,0.00,WeatherDisplay:10.37,2013-01-08 01:10:00,
2013-01-07 16:15:00,6.6,2.8,29.27,NE,45,0.0,0.0,84,0.00,CLR,,0.00,WeatherDisplay:10.37,2013-01-08 01:15:00,
2013-01-07 16:25:00,6.6,3.8,29.27,NE,45,0.0,0.0,88,0.00,CLR,,0.00,WeatherDisplay:10.37,2013-01-08 01:25:00,
2013-01-07 16:30:00,6.4,3.3,29.27,NE,45,0.0,0.0,87,0.00,CLR,,0.00,WeatherDisplay:10.37,2013-01-08 01:30:00,
2013-01-07 16:40:00,7.1,3.2,29.27,NE,45,0.0,0.0,84,0.00,CLR,,0.00,WeatherDisplay:10.37,2013-01-08 01:40:00,
2013-01-07 16:45:00,6.8,3.3,29.27,NE,45,0.0,0.0,85,0.00,CLR,,0.00,WeatherDisplay:10.37,2013-01-08 01:45:00,
2013-01-07 16:55:00,6.1,2.5,29.27,NE,45,0.0,0.0,85,0.00,CLR,,0.00,WeatherDisplay:10.37,2013-01-08 01:55:00,
2013-01-07 17:00:00,6.0,2.5,29.27,NE,45,0.0,0.0,85,0.00,CLR,,0.00,WeatherDisplay:10.37,2013-01-08 02:00:00,
2013-01-07 17:10:00,5.5,2.2,29.27,NE,45,0.0,0.0,86,0.00,CLR,,0.00,WeatherDisplay:10.37,2013-01-08 02:10:00,
2013-01-07 17:15:00,5.0,1.7,29.27,NE,45,0.0,0.0,86,0.00,CLR,,0.00,WeatherDisplay:10.37,2013-01-08 02:15:00,
2013-01-07 17:25:00,4.5,1.2,29.27,NE,45,0.0,0.0,86,0.00,CLR,,0.00,WeatherDisplay:10.37,2013-01-08 02:25:00,
2013-01-07 17:30:00,4.8,1.7,29.27,NE,45,0.0,0.0,87,0.00,CLR,,0.00,WeatherDisplay:10.37,2013-01-08 02:30:00,
2013-01-07 17:40:00,4.5,0.9,29.27,NE,45,0.0,0.0,85,0.00,CLR,,0.00,WeatherDisplay:10.37,2013-01-08 02:40:00,
2013-01-07 17:45:00,4.5,1.4,29.27,NE,45,0.0,0.0,87,0.00,CLR,,0.00,WeatherDisplay:10.37,2013-01-08 02:45:00,
2013-01-07 17:50:00,4.5,0.7,29.27,NE,45,0.0,0.0,84,0.00,CLR,,0.00,WeatherDisplay:10.37,2013-01-08 02:50:00,
2013-01-07 18:00:00,5.2,1.4,29.27,NE,45,1.0,0.0,84,0.00,CLR,,0.00,WeatherDisplay:10.37,2013-01-08 03:00:00,
2013-01-07 18:10:00,5.2,1.4,29.27,NE,45,0.0,0.0,84,0.00,CLR,,0.00,WeatherDisplay:10.37,2013-01-08 03:10:00,
2013-01-07 18:15:00,5.0,1.2,29.27,NE,45,0.0,0.0,84,0.00,CLR,,0.00,WeatherDisplay:10.37,2013-01-08 03:15:00,
2013-01-07 18:25:00,4.6,2.0,29.27,NE,45,0.0,0.0,89,0.00,CLR,,0.00,WeatherDisplay:10.37,2013-01-08 03:25:00,
2013-01-07 18:30:00,4.6,1.4,29.27,NE,45,0.0,0.0,86,0.00,CLR,,0.00,WeatherDisplay:10.37,2013-01-08 03:30:00,
2013-01-07 18:40:00,4.8,2.0,29.27,NE,45,0.0,0.0,88,0.00,CLR,,0.00,WeatherDisplay:10.37,2013-01-08 03:40:00,
2013-01-07 18:45:00,4.7,1.6,29.27,NE,45,0.0,0.0,87,0.00,CLR,,0.00,WeatherDisplay:10.37,2013-01-08 03:45:00,
2013-01-07 18:55:00,4.3,1.0,29.27,NE,45,0.0,0.0,86,0.00,CLR,,0.00,WeatherDisplay:10.37,2013-01-08 03:55:00,
2013-01-07 19:00:00,4.5,1.2,29.27,NE,45,0.0,0.0,86,0.00,CLR,,0.00,WeatherDisplay:10.37,2013-01-08 04:00:00,
2013-01-07 19:05:00,4.5,0.8,29.27,NE,45,0.0,0.0,84,0.00,CLR,,0.00,WeatherDisplay:10.37,2013-01-08 04:05:00,
2013-01-07 19:10:00,4.6,1.3,29.27,NE,45,0.0,0.0,86,0.00,CLR,,0.00,WeatherDisplay:10.37,2013-01-08 04:10:00,
2013-01-07 19:15:00,4.5,1.2,29.27,NE,45,0.0,0.0,86,0.00,CLR,,0.00,WeatherDisplay:10.37,2013-01-08 04:15:00,
2013-01-07 19:25:00,4.3,0.8,29.27,NE,45,2.0,0.0,85,0.00,CLR,,0.00,WeatherDisplay:10.37,2013-01-08 04:25:00,
2013-01-07 19:30:00,4.3,1.8,29.27,NE,45,1.0,0.0,89,0.00,CLR,,0.00,WeatherDisplay:10.37,2013-01-08 04:30:00,
2013-01-07 19:40:00,4.5,1.2,29.27,NE,45,2.0,0.0,86,0.00,CLR,,0.00,WeatherDisplay:10.37,2013-01-08 04:40:00,
2013-01-07 19:45:00,4.7,1.4,29.27,NE,45,2.0,0.0,86,0.00,CLR,,0.00,WeatherDisplay:10.37,2013-01-08 04:45:00,
2013-01-07 19:55:00,4.7,1.5,29.27,NE,45,0.0,0.0,86,0.00,CLR,,0.00,WeatherDisplay:10.37,2013-01-08 04:55:00,
2013-01-07 20:00:00,4.3,1.0,29.27,NE,45,0.0,0.0,86,0.00,CLR,,0.00,WeatherDisplay:10.37,2013-01-08 05:00:00,
2013-01-07 20:10:00,3.4,0.2,29.27,NE,45,0.0,0.0,86,0.00,CLR,,0.00,WeatherDisplay:10.37,2013-01-08 05:10:00,
2013-01-07 20:15:00,3.0,0.0,29.27,NE,45,0.0,0.0,87,0.00,CLR,,0.00,WeatherDisplay:10.37,2013-01-08 05:15:00,
2013-01-07 20:20:00,2.6,-0.6,29.27,NE,45,0.0,0.0,86,0.00,CLR,,0.00,WeatherDisplay:10.37,2013-01-08 05:20:00,
2013-01-07 20:25:00,2.3,-0.9,29.27,NE,45,0.0,0.0,86,0.00,CLR,,0.00,WeatherDisplay:10.37,2013-01-08 05:25:00,
2013-01-07 20:30:00,3.0,0.3,29.27,NE,45,0.0,0.0,88,0.00,CLR,,0.00,WeatherDisplay:10.37,2013-01-08 05:30:00,
2013-01-07 20:40:00,2.9,-0.3,29.27,NE,45,0.0,0.0,86,0.00,CLR,,0.00,WeatherDisplay:10.37,2013-01-08 05:40:00,
2013-01-07 20:45:00,2.6,-1.1,29.27,NE,45,0.0,0.0,84,0.00,CLR,,0.00,WeatherDisplay:10.37,2013-01-08 05:45:00,
2013-01-07 20:50:00,2.5,-1.3,29.27,NE,45,0.0,0.0,84,0.00,CLR,,0.00,WeatherDisplay:10.37,2013-01-08 05:50:00,
2013-01-07 20:55:00,2.5,-1.3,29.27,NE,45,0.0,0.0,84,0.00,CLR,,0.00,WeatherDisplay:10.37,2013-01-08 05:55:00,
2013-01-07 21:00:00,2.5,-1.0,29.27,NE,45,0.0,0.0,85,0.00,CLR,,0.00,WeatherDisplay:10.37,2013-01-08 06:00:00,
2013-01-07 21:10:00,2.5,-1.0,29.27,NE,45,0.0,0.0,85,0.00,CLR,,0.00,WeatherDisplay:10.37,2013-01-08 06:10:00,
2013-01-07 21:15:00,2.5,-0.8,29.27,NE,45,0.0,0.0,86,0.00,CLR,,0.00,WeatherDisplay:10.37,2013-01-08 06:15:00,
2013-01-07 21:20:00,2.5,-0.8,29.27,NE,45,0.0,0.0,86,0.00,CLR,,0.00,WeatherDisplay:10.37,2013-01-08 06:20:00,
2013-01-07 21:25:00,2.5,-1.0,29.27,NE,45,0.0,0.0,85,0.00,CLR,,0.00,WeatherDisplay:10.37,2013-01-08 06:25:00,
2013-01-07 21:30:00,2.5,-1.0,29.27,NE,45,0.0,0.0,85,0.00,CLR,,0.00,WeatherDisplay:10.37,2013-01-08 06:30:00,
2013-01-07 21:40:00,1.9,-1.9,29.27,NE,45,0.0,0.0,84,0.00,CLR,,0.00,WeatherDisplay:10.37,2013-01-08 06:40:00,
2013-01-07 21:45:00,1.8,-1.7,29.27,NE,45,0.0,0.0,85,0.00,CLR,,0.00,WeatherDisplay:10.37,2013-01-08 06:45:00,
2013-01-07 21:55:00,1.9,-1.3,29.27,NE,45,0.0,0.0,86,0.00,CLR,,0.00,WeatherDisplay:10.37,2013-01-08 06:55:00,
2013-01-07 22:00:00,1.8,-1.2,29.27,NE,45,0.0,0.0,87,0.00,CLR,,0.00,WeatherDisplay:10.37,2013-01-08 07:00:00,
2013-01-07 22:10:00,1.8,-1.9,29.27,NE,45,0.0,0.0,84,0.00,CLR,,0.00,WeatherDisplay:10.37,2013-01-08 07:10:00,
2013-01-07 22:15:00,1.9,-1.6,29.27,NE,45,0.0,0.0,85,0.00,CLR,,0.00,WeatherDisplay:10.37,2013-01-08 07:15:00,
2013-01-07 22:25:00,1.6,-1.6,29.27,NE,45,0.0,0.0,86,0.00,CLR,,0.00,WeatherDisplay:10.37,2013-01-08 07:25:00,
2013-01-07 22:30:00,1.7,-1.6,29.27,NE,45,0.0,0.0,86,0.00,CLR,,0.00,WeatherDisplay:10.37,2013-01-08 07:30:00,
2013-01-07 22:40:00,1.8,-2.0,29.27,NE,45,0.0,0.0,84,0.00,CLR,,0.00,WeatherDisplay:10.37,2013-01-08 07:40:00,
2013-01-07 22:45:00,1.6,-2.1,29.27,NE,45,0.0,0.0,84,0.00,CLR,,0.00,WeatherDisplay:10.37,2013-01-08 07:45:00,
2013-01-07 22:55:00,1.5,-2.0,29.27,NE,45,0.0,0.0,85,0.00,CLR,,0.00,WeatherDisplay:10.37,2013-01-08 07:55:00,
2013-01-07 23:00:00,1.4,-2.1,29.27,NE,45,0.0,0.0,85,0.00,CLR,,0.00,WeatherDisplay:10.37,2013-01-08 08:00:00,
2013-01-07 23:10:00,1.4,-2.3,29.27,NE,45,0.0,0.0,84,0.00,CLR,,0.00,WeatherDisplay:10.37,2013-01-08 08:10:00,
2013-01-07 23:15:00,1.2,-2.5,29.27,NE,45,0.0,0.0,84,0.00,CLR,,0.00,WeatherDisplay:10.37,2013-01-08 08:15:00,
2013-01-07 23:25:00,0.9,-2.6,29.27,NE,45,0.0,0.0,85,0.00,CLR,,0.00,WeatherDisplay:10.37,2013-01-08 08:25:00,
2013-01-07 23:30:00,0.9,-2.8,29.27,NE,45,0.0,0.0,84,0.00,CLR,,0.00,WeatherDisplay:10.37,2013-01-08 08:30:00,
2013-01-07 23:40:00,0.7,-3.0,29.27,NE,45,0.0,0.0,84,0.00,CLR,,0.00,WeatherDisplay:10.37,2013-01-08 08:40:00,
2013-01-07 23:45:00,0.5,-3.2,29.27,NE,45,0.0,0.0,84,0.00,CLR,,0.00,WeatherDisplay:10.37,2013-01-08 08:45:00,
2013-01-07 23:50:00,0.5,-3.2,29.27,NE,45,0.0,0.0,84,0.00,CLR,,0.00,WeatherDisplay:10.37,2013-01-08 08:50:00,
2013-01-07 23:55:00,0.3,-2.4,29.27,NE,45,0.0,0.0,88,0.00,CLR,,0.00,WeatherDisplay:10.37,2013-01-08 08:55:00,